sensor_id;sensor_type;location;lat;lon;timestamp;temperature;humidity
33699;DHT22;20032;52.436;13.312;2023-08-01T00:02:16;18.60;99.90
33699;DHT22;20032;52.436;13.312;2023-08-01T00:04:42;18.50;99.90
33699;DHT22;20032;52.436;13.312;2023-08-01T00:07:07;18.40;99.90
33699;DHT22;20032;52.436;13.312;2023-08-01T00:09:32;18.40;99.90
33699;DHT22;20032;52.436;13.312;2023-08-01T00:11:58;18.40;99.90
33699;DHT22;20032;52.436;13.312;2023-08-01T00:14:23;18.40;99.90
33699;DHT22;20032;52.436;13.312;2023-08-01T00:16:50;18.30;99.90
33699;DHT22;20032;52.436;13.312;2023-08-01T00:19:15;18.30;99.90
33699;DHT22;20032;52.436;13.312;2023-08-01T00:21:41;18.20;99.90
33699;DHT22;20032;52.436;13.312;2023-08-01T00:24:06;18.10;99.90
33699;DHT22;20032;52.436;13.312;2023-08-01T00:26:33;17.90;99.90
33699;DHT22;20032;52.436;13.312;2023-08-01T00:28:59;17.90;99.90
33699;DHT22;20032;52.436;13.312;2023-08-01T00:31:24;17.90;99.90
33699;DHT22;20032;52.436;13.312;2023-08-01T00:33:50;17.80;99.90
33699;DHT22;20032;52.436;13.312;2023-08-01T00:36:15;17.70;99.90
33699;DHT22;20032;52.436;13.312;2023-08-01T00:38:41;17.70;99.90
33699;DHT22;20032;52.436;13.312;2023-08-01T00:41:08;17.60;99.90
33699;DHT22;20032;52.436;13.312;2023-08-01T00:43:34;17.60;99.90
33699;DHT22;20032;52.436;13.312;2023-08-01T00:46:00;17.60;99.90
33699;DHT22;20032;52.436;13.312;2023-08-01T00:48:29;17.50;99.90
33699;DHT22;20032;52.436;13.312;2023-08-01T00:50:55;17.50;99.90
33699;DHT22;20032;52.436;13.312;2023-08-01T00:53:21;17.50;99.90
33699;DHT22;20032;52.436;13.312;2023-08-01T00:55:47;17.50;99.90
33699;DHT22;20032;52.436;13.312;2023-08-01T00:58:13;17.50;99.90
33699;DHT22;20032;52.436;13.312;2023-08-01T01:00:39;17.50;99.90
33699;DHT22;20032;52.436;13.312;2023-08-01T01:03:05;17.50;99.90
33699;DHT22;20032;52.436;13.312;2023-08-01T01:05:34;17.40;99.90
33699;DHT22;20032;52.436;13.312;2023-08-01T01:08:00;17.40;99.90
33699;DHT22;20032;52.436;13.312;2023-08-01T01:10:27;17.40;99.90
33699;DHT22;20032;52.436;13.312;2023-08-01T01:12:52;17.30;99.90
33699;DHT22;20032;52.436;13.312;2023-08-01T01:15:17;17.40;99.90
33699;DHT22;20032;52.436;13.312;2023-08-01T01:17:43;17.50;99.90
33699;DHT22;20032;52.436;13.312;2023-08-01T01:20:09;17.50;99.90
33699;DHT22;20032;52.436;13.312;2023-08-01T01:22:36;17.40;99.90
33699;DHT22;20032;52.436;13.312;2023-08-01T01:25:03;17.40;99.90
33699;DHT22;20032;52.436;13.312;2023-08-01T01:27:29;17.40;99.90
33699;DHT22;20032;52.436;13.312;2023-08-01T01:29:55;17.50;99.90
33699;DHT22;20032;52.436;13.312;2023-08-01T01:32:22;17.40;99.90
33699;DHT22;20032;52.436;13.312;2023-08-01T01:34:48;17.30;99.90
33699;DHT22;20032;52.436;13.312;2023-08-01T01:37:13;17.30;99.90
33699;DHT22;20032;52.436;13.312;2023-08-01T01:39:39;17.30;99.90
33699;DHT22;20032;52.436;13.312;2023-08-01T01:42:05;17.30;99.90
33699;DHT22;20032;52.436;13.312;2023-08-01T01:44:31;17.40;99.90
33699;DHT22;20032;52.436;13.312;2023-08-01T01:46:56;17.30;99.90
33699;DHT22;20032;52.436;13.312;2023-08-01T01:49:22;17.30;99.90
33699;DHT22;20032;52.436;13.312;2023-08-01T01:51:47;17.30;99.90
33699;DHT22;20032;52.436;13.312;2023-08-01T01:54:13;17.30;99.90
33699;DHT22;20032;52.436;13.312;2023-08-01T01:56:38;17.30;99.90
33699;DHT22;20032;52.436;13.312;2023-08-01T01:59:03;17.30;99.90
33699;DHT22;20032;52.436;13.312;2023-08-01T02:01:29;17.30;99.90
33699;DHT22;20032;52.436;13.312;2023-08-01T02:03:54;17.40;99.90
33699;DHT22;20032;52.436;13.312;2023-08-01T02:06:20;17.40;99.90
33699;DHT22;20032;52.436;13.312;2023-08-01T02:08:45;17.40;99.90
33699;DHT22;20032;52.436;13.312;2023-08-01T02:11:11;17.40;99.90
33699;DHT22;20032;52.436;13.312;2023-08-01T02:13:36;17.30;99.90
33699;DHT22;20032;52.436;13.312;2023-08-01T02:16:02;17.30;99.90
33699;DHT22;20032;52.436;13.312;2023-08-01T02:18:27;17.30;99.90
33699;DHT22;20032;52.436;13.312;2023-08-01T02:20:53;17.30;99.90
33699;DHT22;20032;52.436;13.312;2023-08-01T02:23:18;17.30;99.90
33699;DHT22;20032;52.436;13.312;2023-08-01T02:25:44;17.20;99.90
33699;DHT22;20032;52.436;13.312;2023-08-01T02:28:09;17.20;99.90
33699;DHT22;20032;52.436;13.312;2023-08-01T02:30:35;17.20;99.90
33699;DHT22;20032;52.436;13.312;2023-08-01T02:33:01;17.10;99.90
33699;DHT22;20032;52.436;13.312;2023-08-01T02:35:26;17.20;99.90
33699;DHT22;20032;52.436;13.312;2023-08-01T02:37:53;17.20;99.90
33699;DHT22;20032;52.436;13.312;2023-08-01T02:40:19;17.30;99.90
33699;DHT22;20032;52.436;13.312;2023-08-01T02:42:44;17.30;99.90
33699;DHT22;20032;52.436;13.312;2023-08-01T02:45:10;17.30;99.90
33699;DHT22;20032;52.436;13.312;2023-08-01T02:47:35;17.30;99.90
33699;DHT22;20032;52.436;13.312;2023-08-01T02:50:01;17.30;99.90
33699;DHT22;20032;52.436;13.312;2023-08-01T02:52:26;17.40;99.90
33699;DHT22;20032;52.436;13.312;2023-08-01T02:54:53;17.30;99.90
33699;DHT22;20032;52.436;13.312;2023-08-01T02:57:18;17.30;99.90
33699;DHT22;20032;52.436;13.312;2023-08-01T02:59:44;17.30;99.90
33699;DHT22;20032;52.436;13.312;2023-08-01T03:02:09;17.30;99.90
33699;DHT22;20032;52.436;13.312;2023-08-01T03:04:35;17.40;99.90
33699;DHT22;20032;52.436;13.312;2023-08-01T03:07:01;17.40;99.90
33699;DHT22;20032;52.436;13.312;2023-08-01T03:09:26;17.40;99.90
33699;DHT22;20032;52.436;13.312;2023-08-01T03:11:51;17.30;99.90
33699;DHT22;20032;52.436;13.312;2023-08-01T03:14:17;17.30;99.90
33699;DHT22;20032;52.436;13.312;2023-08-01T03:16:42;17.30;99.90
33699;DHT22;20032;52.436;13.312;2023-08-01T03:19:08;17.30;99.90
33699;DHT22;20032;52.436;13.312;2023-08-01T03:21:34;17.40;99.90
33699;DHT22;20032;52.436;13.312;2023-08-01T03:24:01;17.30;99.90
33699;DHT22;20032;52.436;13.312;2023-08-01T03:26:26;17.30;99.90
33699;DHT22;20032;52.436;13.312;2023-08-01T03:28:54;17.30;99.90
33699;DHT22;20032;52.436;13.312;2023-08-01T03:31:22;17.30;99.90
33699;DHT22;20032;52.436;13.312;2023-08-01T03:33:47;17.30;99.90
33699;DHT22;20032;52.436;13.312;2023-08-01T03:36:13;17.30;99.90
33699;DHT22;20032;52.436;13.312;2023-08-01T03:38:39;17.40;99.90
33699;DHT22;20032;52.436;13.312;2023-08-01T03:41:04;17.30;99.90
33699;DHT22;20032;52.436;13.312;2023-08-01T03:43:30;17.30;99.90
33699;DHT22;20032;52.436;13.312;2023-08-01T03:45:55;17.30;99.90
33699;DHT22;20032;52.436;13.312;2023-08-01T03:48:21;17.30;99.90
33699;DHT22;20032;52.436;13.312;2023-08-01T03:50:46;17.30;99.90
33699;DHT22;20032;52.436;13.312;2023-08-01T03:53:12;17.30;99.90
33699;DHT22;20032;52.436;13.312;2023-08-01T03:55:37;17.40;99.90
33699;DHT22;20032;52.436;13.312;2023-08-01T03:58:03;17.40;99.90
33699;DHT22;20032;52.436;13.312;2023-08-01T04:00:28;17.40;99.90
33699;DHT22;20032;52.436;13.312;2023-08-01T04:02:58;17.40;99.90
33699;DHT22;20032;52.436;13.312;2023-08-01T04:05:24;17.40;99.90
33699;DHT22;20032;52.436;13.312;2023-08-01T04:07:49;17.50;99.90
33699;DHT22;20032;52.436;13.312;2023-08-01T04:10:15;17.40;99.90
33699;DHT22;20032;52.436;13.312;2023-08-01T04:12:40;17.40;99.90
33699;DHT22;20032;52.436;13.312;2023-08-01T04:15:08;17.40;99.90
33699;DHT22;20032;52.436;13.312;2023-08-01T04:17:33;17.50;99.90
33699;DHT22;20032;52.436;13.312;2023-08-01T04:19:59;17.50;99.90
33699;DHT22;20032;52.436;13.312;2023-08-01T04:22:24;17.50;99.90
33699;DHT22;20032;52.436;13.312;2023-08-01T04:24:50;17.50;99.90
33699;DHT22;20032;52.436;13.312;2023-08-01T04:27:16;17.50;99.90
33699;DHT22;20032;52.436;13.312;2023-08-01T04:29:41;17.50;99.90
33699;DHT22;20032;52.436;13.312;2023-08-01T04:32:07;17.50;99.90
33699;DHT22;20032;52.436;13.312;2023-08-01T04:34:33;17.50;99.90
33699;DHT22;20032;52.436;13.312;2023-08-01T04:36:58;17.60;99.90
33699;DHT22;20032;52.436;13.312;2023-08-01T04:39:24;17.50;99.90
33699;DHT22;20032;52.436;13.312;2023-08-01T04:41:49;17.60;99.90
33699;DHT22;20032;52.436;13.312;2023-08-01T04:44:15;17.60;99.90
33699;DHT22;20032;52.436;13.312;2023-08-01T04:46:41;17.60;99.90
33699;DHT22;20032;52.436;13.312;2023-08-01T04:49:07;17.50;99.90
33699;DHT22;20032;52.436;13.312;2023-08-01T04:51:32;17.50;99.90
33699;DHT22;20032;52.436;13.312;2023-08-01T04:53:58;17.50;99.90
33699;DHT22;20032;52.436;13.312;2023-08-01T04:56:23;17.40;99.90
33699;DHT22;20032;52.436;13.312;2023-08-01T04:58:49;17.40;99.90
33699;DHT22;20032;52.436;13.312;2023-08-01T05:01:14;17.40;99.90
33699;DHT22;20032;52.436;13.312;2023-08-01T05:03:40;17.40;99.90
33699;DHT22;20032;52.436;13.312;2023-08-01T05:06:05;17.40;99.90
33699;DHT22;20032;52.436;13.312;2023-08-01T05:08:31;17.40;99.90
33699;DHT22;20032;52.436;13.312;2023-08-01T05:10:56;17.40;99.90
33699;DHT22;20032;52.436;13.312;2023-08-01T05:13:22;17.40;99.90
33699;DHT22;20032;52.436;13.312;2023-08-01T05:15:47;17.40;99.90
33699;DHT22;20032;52.436;13.312;2023-08-01T05:18:14;17.50;99.90
33699;DHT22;20032;52.436;13.312;2023-08-01T05:20:39;17.40;99.90
33699;DHT22;20032;52.436;13.312;2023-08-01T05:23:05;17.50;99.90
33699;DHT22;20032;52.436;13.312;2023-08-01T05:25:30;17.50;99.90
33699;DHT22;20032;52.436;13.312;2023-08-01T05:27:56;17.50;99.90
33699;DHT22;20032;52.436;13.312;2023-08-01T05:30:21;17.60;99.90
33699;DHT22;20032;52.436;13.312;2023-08-01T05:32:47;17.50;99.90
33699;DHT22;20032;52.436;13.312;2023-08-01T05:35:12;17.50;99.90
33699;DHT22;20032;52.436;13.312;2023-08-01T05:37:38;17.60;99.90
33699;DHT22;20032;52.436;13.312;2023-08-01T05:40:04;17.50;99.90
33699;DHT22;20032;52.436;13.312;2023-08-01T05:42:29;17.50;99.90
33699;DHT22;20032;52.436;13.312;2023-08-01T05:44:55;17.50;99.90
33699;DHT22;20032;52.436;13.312;2023-08-01T05:47:20;17.50;99.90
33699;DHT22;20032;52.436;13.312;2023-08-01T05:49:48;17.50;99.90
33699;DHT22;20032;52.436;13.312;2023-08-01T05:52:13;17.50;99.90
33699;DHT22;20032;52.436;13.312;2023-08-01T05:54:39;17.50;99.90
33699;DHT22;20032;52.436;13.312;2023-08-01T05:57:05;17.50;99.90
33699;DHT22;20032;52.436;13.312;2023-08-01T05:59:30;17.60;99.90
33699;DHT22;20032;52.436;13.312;2023-08-01T06:01:56;17.70;99.90
33699;DHT22;20032;52.436;13.312;2023-08-01T06:04:22;17.60;99.90
33699;DHT22;20032;52.436;13.312;2023-08-01T06:06:47;17.70;99.90
33699;DHT22;20032;52.436;13.312;2023-08-01T06:09:13;17.70;99.90
33699;DHT22;20032;52.436;13.312;2023-08-01T06:11:38;17.70;99.90
33699;DHT22;20032;52.436;13.312;2023-08-01T06:14:04;17.70;99.90
33699;DHT22;20032;52.436;13.312;2023-08-01T06:16:29;17.70;99.90
33699;DHT22;20032;52.436;13.312;2023-08-01T06:18:55;17.80;99.90
33699;DHT22;20032;52.436;13.312;2023-08-01T06:21:21;17.80;99.90
33699;DHT22;20032;52.436;13.312;2023-08-01T06:23:47;17.80;99.90
33699;DHT22;20032;52.436;13.312;2023-08-01T06:26:12;17.80;99.90
33699;DHT22;20032;52.436;13.312;2023-08-01T06:28:38;17.80;99.90
33699;DHT22;20032;52.436;13.312;2023-08-01T06:31:03;17.70;99.90
33699;DHT22;20032;52.436;13.312;2023-08-01T06:33:29;17.70;99.90
33699;DHT22;20032;52.436;13.312;2023-08-01T06:35:54;17.70;99.90
33699;DHT22;20032;52.436;13.312;2023-08-01T06:38:19;17.80;99.90
33699;DHT22;20032;52.436;13.312;2023-08-01T06:40:45;17.80;99.90
33699;DHT22;20032;52.436;13.312;2023-08-01T06:43:10;17.90;99.90
33699;DHT22;20032;52.436;13.312;2023-08-01T06:45:36;17.80;99.90
33699;DHT22;20032;52.436;13.312;2023-08-01T06:48:01;17.80;99.90
33699;DHT22;20032;52.436;13.312;2023-08-01T06:50:27;17.90;99.90
33699;DHT22;20032;52.436;13.312;2023-08-01T06:52:52;17.90;99.90
33699;DHT22;20032;52.436;13.312;2023-08-01T06:55:18;17.90;99.90
33699;DHT22;20032;52.436;13.312;2023-08-01T06:57:43;17.90;99.90
33699;DHT22;20032;52.436;13.312;2023-08-01T07:00:09;17.90;99.90
33699;DHT22;20032;52.436;13.312;2023-08-01T07:02:36;17.90;99.90
33699;DHT22;20032;52.436;13.312;2023-08-01T07:05:01;17.90;99.90
33699;DHT22;20032;52.436;13.312;2023-08-01T07:07:27;18.00;99.90
33699;DHT22;20032;52.436;13.312;2023-08-01T07:09:52;18.00;99.90
33699;DHT22;20032;52.436;13.312;2023-08-01T07:12:18;18.00;99.90
33699;DHT22;20032;52.436;13.312;2023-08-01T07:14:43;18.00;99.90
33699;DHT22;20032;52.436;13.312;2023-08-01T07:17:09;18.10;99.90
33699;DHT22;20032;52.436;13.312;2023-08-01T07:19:34;18.20;99.90
33699;DHT22;20032;52.436;13.312;2023-08-01T07:22:00;18.10;99.90
33699;DHT22;20032;52.436;13.312;2023-08-01T07:24:25;18.20;99.90
33699;DHT22;20032;52.436;13.312;2023-08-01T07:26:51;18.30;99.90
33699;DHT22;20032;52.436;13.312;2023-08-01T07:29:16;18.40;99.90
33699;DHT22;20032;52.436;13.312;2023-08-01T07:31:42;18.50;99.90
33699;DHT22;20032;52.436;13.312;2023-08-01T07:34:08;18.40;99.90
33699;DHT22;20032;52.436;13.312;2023-08-01T07:36:34;18.40;99.90
33699;DHT22;20032;52.436;13.312;2023-08-01T07:38:59;18.60;99.90
33699;DHT22;20032;52.436;13.312;2023-08-01T07:41:25;18.60;99.90
33699;DHT22;20032;52.436;13.312;2023-08-01T07:43:50;18.60;99.90
33699;DHT22;20032;52.436;13.312;2023-08-01T07:46:15;18.70;99.90
33699;DHT22;20032;52.436;13.312;2023-08-01T07:48:41;18.70;99.90
33699;DHT22;20032;52.436;13.312;2023-08-01T07:51:06;18.70;99.90
33699;DHT22;20032;52.436;13.312;2023-08-01T07:53:33;18.80;99.90
33699;DHT22;20032;52.436;13.312;2023-08-01T07:55:59;18.90;99.90
33699;DHT22;20032;52.436;13.312;2023-08-01T07:58:27;19.00;99.90
33699;DHT22;20032;52.436;13.312;2023-08-01T08:00:53;19.00;99.90
33699;DHT22;20032;52.436;13.312;2023-08-01T08:03:18;19.00;99.90
33699;DHT22;20032;52.436;13.312;2023-08-01T08:05:44;19.00;99.90
33699;DHT22;20032;52.436;13.312;2023-08-01T08:08:10;19.00;99.90
33699;DHT22;20032;52.436;13.312;2023-08-01T08:10:35;19.10;99.90
33699;DHT22;20032;52.436;13.312;2023-08-01T08:13:01;19.20;99.90
33699;DHT22;20032;52.436;13.312;2023-08-01T08:15:27;19.40;99.90
33699;DHT22;20032;52.436;13.312;2023-08-01T08:17:52;19.60;99.90
33699;DHT22;20032;52.436;13.312;2023-08-01T08:20:18;19.60;99.90
33699;DHT22;20032;52.436;13.312;2023-08-01T08:22:43;19.70;99.90
33699;DHT22;20032;52.436;13.312;2023-08-01T08:25:09;19.90;99.90
33699;DHT22;20032;52.436;13.312;2023-08-01T08:27:34;20.00;99.90
33699;DHT22;20032;52.436;13.312;2023-08-01T08:30:00;20.00;99.90
33699;DHT22;20032;52.436;13.312;2023-08-01T08:32:25;19.90;99.90
33699;DHT22;20032;52.436;13.312;2023-08-01T08:34:51;19.90;99.90
33699;DHT22;20032;52.436;13.312;2023-08-01T08:37:16;20.00;99.90
33699;DHT22;20032;52.436;13.312;2023-08-01T08:39:41;20.10;99.90
33699;DHT22;20032;52.436;13.312;2023-08-01T08:42:07;20.10;99.90
33699;DHT22;20032;52.436;13.312;2023-08-01T08:44:35;20.00;99.90
33699;DHT22;20032;52.436;13.312;2023-08-01T08:47:06;20.00;99.90
33699;DHT22;20032;52.436;13.312;2023-08-01T08:49:32;20.10;99.90
33699;DHT22;20032;52.436;13.312;2023-08-01T08:51:58;20.10;99.90
33699;DHT22;20032;52.436;13.312;2023-08-01T08:54:24;20.20;99.90
33699;DHT22;20032;52.436;13.312;2023-08-01T08:56:51;20.30;99.90
33699;DHT22;20032;52.436;13.312;2023-08-01T08:59:17;20.40;99.90
33699;DHT22;20032;52.436;13.312;2023-08-01T09:01:44;20.60;99.90
33699;DHT22;20032;52.436;13.312;2023-08-01T09:04:10;20.70;99.90
33699;DHT22;20032;52.436;13.312;2023-08-01T09:06:43;20.80;99.90
33699;DHT22;20032;52.436;13.312;2023-08-01T09:09:12;20.80;99.90
33699;DHT22;20032;52.436;13.312;2023-08-01T09:11:48;20.90;99.90
33699;DHT22;20032;52.436;13.312;2023-08-01T09:14:14;21.00;99.90
33699;DHT22;20032;52.436;13.312;2023-08-01T09:16:41;21.00;99.90
33699;DHT22;20032;52.436;13.312;2023-08-01T09:19:07;21.10;99.90
33699;DHT22;20032;52.436;13.312;2023-08-01T09:21:33;21.20;99.90
33699;DHT22;20032;52.436;13.312;2023-08-01T09:24:16;21.20;99.90
33699;DHT22;20032;52.436;13.312;2023-08-01T09:26:43;21.20;99.90
33699;DHT22;20032;52.436;13.312;2023-08-01T09:29:09;21.10;99.90
33699;DHT22;20032;52.436;13.312;2023-08-01T09:31:37;21.00;99.90
33699;DHT22;20032;52.436;13.312;2023-08-01T09:34:04;20.70;99.90
33699;DHT22;20032;52.436;13.312;2023-08-01T09:36:33;20.60;99.90
33699;DHT22;20032;52.436;13.312;2023-08-01T09:39:00;20.50;99.90
33699;DHT22;20032;52.436;13.312;2023-08-01T09:41:26;20.40;99.90
33699;DHT22;20032;52.436;13.312;2023-08-01T09:43:52;20.30;99.90
33699;DHT22;20032;52.436;13.312;2023-08-01T09:46:17;20.30;99.90
33699;DHT22;20032;52.436;13.312;2023-08-01T09:48:43;20.40;99.90
33699;DHT22;20032;52.436;13.312;2023-08-01T09:51:10;20.50;99.90
33699;DHT22;20032;52.436;13.312;2023-08-01T09:53:54;20.60;99.90
33699;DHT22;20032;52.436;13.312;2023-08-01T09:56:21;20.70;99.90
33699;DHT22;20032;52.436;13.312;2023-08-01T09:58:48;20.70;99.90
33699;DHT22;20032;52.436;13.312;2023-08-01T10:01:15;20.70;99.90
33699;DHT22;20032;52.436;13.312;2023-08-01T10:03:49;20.80;99.90
33699;DHT22;20032;52.436;13.312;2023-08-01T10:06:18;20.80;99.90
33699;DHT22;20032;52.436;13.312;2023-08-01T10:08:46;20.70;99.90
33699;DHT22;20032;52.436;13.312;2023-08-01T10:11:14;20.60;99.90
33699;DHT22;20032;52.436;13.312;2023-08-01T10:13:41;20.50;99.90
33699;DHT22;20032;52.436;13.312;2023-08-01T10:16:07;20.50;99.90
33699;DHT22;20032;52.436;13.312;2023-08-01T10:18:33;20.40;99.90
33699;DHT22;20032;52.436;13.312;2023-08-01T10:21:00;20.40;99.90
33699;DHT22;20032;52.436;13.312;2023-08-01T10:23:27;20.40;99.90
33699;DHT22;20032;52.436;13.312;2023-08-01T10:25:53;20.40;99.90
33699;DHT22;20032;52.436;13.312;2023-08-01T10:28:19;20.40;99.90
33699;DHT22;20032;52.436;13.312;2023-08-01T10:30:44;20.40;99.90
33699;DHT22;20032;52.436;13.312;2023-08-01T10:33:10;20.30;99.90
33699;DHT22;20032;52.436;13.312;2023-08-01T10:35:39;20.30;99.90
33699;DHT22;20032;52.436;13.312;2023-08-01T10:38:07;20.30;99.90
33699;DHT22;20032;52.436;13.312;2023-08-01T10:40:35;20.20;99.90
33699;DHT22;20032;52.436;13.312;2023-08-01T10:43:00;20.10;99.90
33699;DHT22;20032;52.436;13.312;2023-08-01T10:45:26;19.80;99.90
33699;DHT22;20032;52.436;13.312;2023-08-01T10:47:54;19.40;99.90
33699;DHT22;20032;52.436;13.312;2023-08-01T10:50:19;19.00;99.90
33699;DHT22;20032;52.436;13.312;2023-08-01T10:52:45;18.80;99.90
33699;DHT22;20032;52.436;13.312;2023-08-01T10:55:12;18.70;99.90
33699;DHT22;20032;52.436;13.312;2023-08-01T10:57:46;18.70;99.90
33699;DHT22;20032;52.436;13.312;2023-08-01T11:00:16;18.70;99.90
33699;DHT22;20032;52.436;13.312;2023-08-01T11:02:48;18.60;99.90
33699;DHT22;20032;52.436;13.312;2023-08-01T11:05:13;18.60;99.90
33699;DHT22;20032;52.436;13.312;2023-08-01T11:07:39;18.50;99.90
33699;DHT22;20032;52.436;13.312;2023-08-01T11:12:34;18.60;99.90
33699;DHT22;20032;52.436;13.312;2023-08-01T11:15:01;18.60;99.90
33699;DHT22;20032;52.436;13.312;2023-08-01T11:17:26;18.50;99.90
33699;DHT22;20032;52.436;13.312;2023-08-01T11:20:01;18.50;99.90
33699;DHT22;20032;52.436;13.312;2023-08-01T11:22:27;18.40;99.90
33699;DHT22;20032;52.436;13.312;2023-08-01T11:24:53;18.40;99.90
33699;DHT22;20032;52.436;13.312;2023-08-01T11:27:18;18.50;99.90
33699;DHT22;20032;52.436;13.312;2023-08-01T11:29:44;18.50;99.90
33699;DHT22;20032;52.436;13.312;2023-08-01T11:32:09;18.50;99.90
33699;DHT22;20032;52.436;13.312;2023-08-01T11:34:42;18.60;99.90
33699;DHT22;20032;52.436;13.312;2023-08-01T11:37:10;18.50;99.90
33699;DHT22;20032;52.436;13.312;2023-08-01T11:39:36;18.50;99.90
33699;DHT22;20032;52.436;13.312;2023-08-01T11:42:02;18.50;99.90
33699;DHT22;20032;52.436;13.312;2023-08-01T11:44:28;18.40;99.90
33699;DHT22;20032;52.436;13.312;2023-08-01T11:46:55;18.30;99.90
33699;DHT22;20032;52.436;13.312;2023-08-01T11:49:21;18.30;99.90
33699;DHT22;20032;52.436;13.312;2023-08-01T11:51:46;18.30;99.90
33699;DHT22;20032;52.436;13.312;2023-08-01T11:54:13;18.40;99.90
33699;DHT22;20032;52.436;13.312;2023-08-01T11:56:40;18.60;99.90
33699;DHT22;20032;52.436;13.312;2023-08-01T11:59:09;18.80;99.90
33699;DHT22;20032;52.436;13.312;2023-08-01T12:01:39;18.90;99.90
33699;DHT22;20032;52.436;13.312;2023-08-01T12:04:05;19.10;99.90
33699;DHT22;20032;52.436;13.312;2023-08-01T12:06:32;19.30;99.90
33699;DHT22;20032;52.436;13.312;2023-08-01T12:09:09;19.70;99.90
33699;DHT22;20032;52.436;13.312;2023-08-01T12:11:35;20.00;99.90
33699;DHT22;20032;52.436;13.312;2023-08-01T12:14:16;20.70;99.90
33699;DHT22;20032;52.436;13.312;2023-08-01T12:16:43;21.30;99.90
33699;DHT22;20032;52.436;13.312;2023-08-01T12:19:10;21.50;99.90
33699;DHT22;20032;52.436;13.312;2023-08-01T12:21:36;21.30;99.90
33699;DHT22;20032;52.436;13.312;2023-08-01T12:24:02;20.90;99.90
33699;DHT22;20032;52.436;13.312;2023-08-01T12:26:28;20.60;99.90
33699;DHT22;20032;52.436;13.312;2023-08-01T12:28:54;20.60;99.90
33699;DHT22;20032;52.436;13.312;2023-08-01T12:31:20;20.80;99.90
33699;DHT22;20032;52.436;13.312;2023-08-01T12:33:47;20.90;99.90
33699;DHT22;20032;52.436;13.312;2023-08-01T12:36:13;20.60;99.90
33699;DHT22;20032;52.436;13.312;2023-08-01T12:38:39;20.80;99.90
33699;DHT22;20032;52.436;13.312;2023-08-01T12:41:04;21.20;99.90
33699;DHT22;20032;52.436;13.312;2023-08-01T12:43:30;21.70;99.90
33699;DHT22;20032;52.436;13.312;2023-08-01T12:45:55;21.70;99.90
33699;DHT22;20032;52.436;13.312;2023-08-01T12:48:24;21.50;99.90
33699;DHT22;20032;52.436;13.312;2023-08-01T12:50:50;21.30;99.90
33699;DHT22;20032;52.436;13.312;2023-08-01T12:53:16;21.00;99.90
33699;DHT22;20032;52.436;13.312;2023-08-01T12:55:46;20.80;99.90
33699;DHT22;20032;52.436;13.312;2023-08-01T12:58:12;20.60;99.90
33699;DHT22;20032;52.436;13.312;2023-08-01T13:00:39;20.60;99.90
33699;DHT22;20032;52.436;13.312;2023-08-01T13:03:05;20.90;99.90
33699;DHT22;20032;52.436;13.312;2023-08-01T13:05:34;21.70;99.90
33699;DHT22;20032;52.436;13.312;2023-08-01T13:07:59;22.30;99.90
33699;DHT22;20032;52.436;13.312;2023-08-01T13:10:25;22.20;99.90
33699;DHT22;20032;52.436;13.312;2023-08-01T13:12:50;22.20;99.90
33699;DHT22;20032;52.436;13.312;2023-08-01T13:15:16;22.50;99.90
33699;DHT22;20032;52.436;13.312;2023-08-01T13:17:41;23.20;99.90
33699;DHT22;20032;52.436;13.312;2023-08-01T13:20:07;23.60;99.90
33699;DHT22;20032;52.436;13.312;2023-08-01T13:22:33;24.10;99.90
33699;DHT22;20032;52.436;13.312;2023-08-01T13:24:58;24.50;99.90
33699;DHT22;20032;52.436;13.312;2023-08-01T13:27:24;25.00;99.90
33699;DHT22;20032;52.436;13.312;2023-08-01T13:29:49;24.70;99.90
33699;DHT22;20032;52.436;13.312;2023-08-01T13:32:17;24.10;99.90
33699;DHT22;20032;52.436;13.312;2023-08-01T13:34:43;24.20;99.90
33699;DHT22;20032;52.436;13.312;2023-08-01T13:37:09;25.10;99.90
33699;DHT22;20032;52.436;13.312;2023-08-01T13:39:34;25.60;99.90
33699;DHT22;20032;52.436;13.312;2023-08-01T13:42:00;24.70;99.90
33699;DHT22;20032;52.436;13.312;2023-08-01T13:44:26;24.10;99.90
33699;DHT22;20032;52.436;13.312;2023-08-01T13:46:51;23.60;99.90
33699;DHT22;20032;52.436;13.312;2023-08-01T13:49:17;23.70;99.90
33699;DHT22;20032;52.436;13.312;2023-08-01T13:51:42;23.60;99.90
33699;DHT22;20032;52.436;13.312;2023-08-01T13:54:08;23.80;99.90
33699;DHT22;20032;52.436;13.312;2023-08-01T13:56:33;23.60;99.90
33699;DHT22;20032;52.436;13.312;2023-08-01T13:58:59;24.40;99.90
33699;DHT22;20032;52.436;13.312;2023-08-01T14:01:24;24.40;99.90
33699;DHT22;20032;52.436;13.312;2023-08-01T14:03:50;25.20;99.90
33699;DHT22;20032;52.436;13.312;2023-08-01T14:06:15;26.50;99.90
33699;DHT22;20032;52.436;13.312;2023-08-01T14:08:41;27.40;99.90
33699;DHT22;20032;52.436;13.312;2023-08-01T14:11:08;26.70;99.90
33699;DHT22;20032;52.436;13.312;2023-08-01T14:13:35;26.70;99.90
33699;DHT22;20032;52.436;13.312;2023-08-01T14:16:01;27.00;99.90
33699;DHT22;20032;52.436;13.312;2023-08-01T14:18:28;27.60;99.90
33699;DHT22;20032;52.436;13.312;2023-08-01T14:20:54;27.30;99.90
33699;DHT22;20032;52.436;13.312;2023-08-01T14:23:20;26.70;99.90
33699;DHT22;20032;52.436;13.312;2023-08-01T14:25:45;25.50;99.90
33699;DHT22;20032;52.436;13.312;2023-08-01T14:28:11;24.50;99.90
33699;DHT22;20032;52.436;13.312;2023-08-01T14:30:37;23.90;99.90
33699;DHT22;20032;52.436;13.312;2023-08-01T14:33:05;23.60;99.90
33699;DHT22;20032;52.436;13.312;2023-08-01T14:35:31;23.60;99.90
33699;DHT22;20032;52.436;13.312;2023-08-01T14:37:57;24.90;99.90
33699;DHT22;20032;52.436;13.312;2023-08-01T14:40:23;26.10;99.90
33699;DHT22;20032;52.436;13.312;2023-08-01T14:42:49;27.10;99.90
33699;DHT22;20032;52.436;13.312;2023-08-01T14:45:15;27.60;99.90
33699;DHT22;20032;52.436;13.312;2023-08-01T14:47:41;27.80;99.90
33699;DHT22;20032;52.436;13.312;2023-08-01T14:50:09;28.10;99.90
33699;DHT22;20032;52.436;13.312;2023-08-01T14:52:35;27.90;99.90
33699;DHT22;20032;52.436;13.312;2023-08-01T14:55:00;28.10;99.90
33699;DHT22;20032;52.436;13.312;2023-08-01T14:57:26;28.20;99.90
33699;DHT22;20032;52.436;13.312;2023-08-01T14:59:51;27.60;99.90
33699;DHT22;20032;52.436;13.312;2023-08-01T15:02:17;27.50;99.90
33699;DHT22;20032;52.436;13.312;2023-08-01T15:04:42;27.60;99.90
33699;DHT22;20032;52.436;13.312;2023-08-01T15:07:08;26.80;99.90
33699;DHT22;20032;52.436;13.312;2023-08-01T15:09:34;25.40;99.90
33699;DHT22;20032;52.436;13.312;2023-08-01T15:12:00;24.70;99.90